sensor_id;sensor_type;location;lat;lon;timestamp;temperature;humidity
67192;HTU21D;54120;53.504;49.426;2024-02-21T00:02:10;-17.01;88.60
67192;HTU21D;54120;53.504;49.426;2024-02-21T00:04:37;-17.07;88.07
67192;HTU21D;54120;53.504;49.426;2024-02-21T00:07:04;-17.12;87.94
67192;HTU21D;54120;53.504;49.426;2024-02-21T00:09:31;-17.15;87.95
67192;HTU21D;54120;53.504;49.426;2024-02-21T00:11:57;-17.23;87.25
67192;HTU21D;54120;53.504;49.426;2024-02-21T00:14:24;-17.23;87.45
67192;HTU21D;54120;53.504;49.426;2024-02-21T00:16:50;-17.24;87.89
67192;HTU21D;54120;53.504;49.426;2024-02-21T00:19:17;-17.22;88.18
67192;HTU21D;54120;53.504;49.426;2024-02-21T00:21:43;-17.22;88.06
67192;HTU21D;54120;53.504;49.426;2024-02-21T00:24:09;-17.16;88.89
67192;HTU21D;54120;53.504;49.426;2024-02-21T00:26:36;-17.13;89.15
67192;HTU21D;54120;53.504;49.426;2024-02-21T00:29:02;-17.13;88.71
67192;HTU21D;54120;53.504;49.426;2024-02-21T00:31:28;-17.07;89.29
67192;HTU21D;54120;53.504;49.426;2024-02-21T00:33:54;-17.09;88.67
67192;HTU21D;54120;53.504;49.426;2024-02-21T00:36:21;-17.06;89.09
67192;HTU21D;54120;53.504;49.426;2024-02-21T00:38:47;-17.08;88.88
67192;HTU21D;54120;53.504;49.426;2024-02-21T00:41:13;-17.20;87.85
67192;HTU21D;54120;53.504;49.426;2024-02-21T00:43:41;-17.29;87.67
67192;HTU21D;54120;53.504;49.426;2024-02-21T00:46:08;-17.28;88.34
67192;HTU21D;54120;53.504;49.426;2024-02-21T00:48:34;-17.35;87.57
67192;HTU21D;54120;53.504;49.426;2024-02-21T00:51:01;-17.37;87.72
67192;HTU21D;54120;53.504;49.426;2024-02-21T00:53:27;-17.39;88.08
67192;HTU21D;54120;53.504;49.426;2024-02-21T00:55:53;-17.33;88.70
67192;HTU21D;54120;53.504;49.426;2024-02-21T00:58:20;-17.39;87.90
67192;HTU21D;54120;53.504;49.426;2024-02-21T01:00:46;-17.41;87.82
67192;HTU21D;54120;53.504;49.426;2024-02-21T01:03:12;-17.54;87.29
67192;HTU21D;54120;53.504;49.426;2024-02-21T01:05:39;-17.57;87.43
67192;HTU21D;54120;53.504;49.426;2024-02-21T01:08:05;-17.53;88.21
67192;HTU21D;54120;53.504;49.426;2024-02-21T01:10:31;-17.50;88.57
67192;HTU21D;54120;53.504;49.426;2024-02-21T01:12:58;-17.57;87.71
67192;HTU21D;54120;53.504;49.426;2024-02-21T01:15:24;-17.60;87.73
67192;HTU21D;54120;53.504;49.426;2024-02-21T01:17:50;-17.58;88.21
67192;HTU21D;54120;53.504;49.426;2024-02-21T01:20:21;-17.53;88.58
67192;HTU21D;54120;53.504;49.426;2024-02-21T01:22:47;-17.51;88.73
67192;HTU21D;54120;53.504;49.426;2024-02-21T01:25:13;-17.57;88.01
67192;HTU21D;54120;53.504;49.426;2024-02-21T01:27:40;-17.56;88.09
67192;HTU21D;54120;53.504;49.426;2024-02-21T01:30:06;-17.60;88.22
67192;HTU21D;54120;53.504;49.426;2024-02-21T01:32:33;-17.58;88.52
67192;HTU21D;54120;53.504;49.426;2024-02-21T01:34:59;-17.59;88.39
67192;HTU21D;54120;53.504;49.426;2024-02-21T01:37:26;-17.57;88.72
67192;HTU21D;54120;53.504;49.426;2024-02-21T01:39:53;-17.63;87.89
67192;HTU21D;54120;53.504;49.426;2024-02-21T01:42:19;-17.70;87.88
67192;HTU21D;54120;53.504;49.426;2024-02-21T01:44:45;-17.75;87.60
67192;HTU21D;54120;53.504;49.426;2024-02-21T01:47:12;-17.80;87.29
67192;HTU21D;54120;53.504;49.426;2024-02-21T01:49:43;-17.82;87.44
67192;HTU21D;54120;53.504;49.426;2024-02-21T01:52:12;-17.85;87.41
67192;HTU21D;54120;53.504;49.426;2024-02-21T01:54:40;-17.85;87.57
67192;HTU21D;54120;53.504;49.426;2024-02-21T01:57:06;-17.88;87.17
67192;HTU21D;54120;53.504;49.426;2024-02-21T01:59:33;-17.89;87.17
67192;HTU21D;54120;53.504;49.426;2024-02-21T02:02:02;-17.90;87.58
67192;HTU21D;54120;53.504;49.426;2024-02-21T02:04:28;-17.92;87.45
67192;HTU21D;54120;53.504;49.426;2024-02-21T02:06:55;-17.90;87.35
67192;HTU21D;54120;53.504;49.426;2024-02-21T02:09:22;-17.97;86.67
67192;HTU21D;54120;53.504;49.426;2024-02-21T02:11:48;-18.01;86.73
67192;HTU21D;54120;53.504;49.426;2024-02-21T02:14:14;-18.05;86.62
67192;HTU21D;54120;53.504;49.426;2024-02-21T02:16:40;-18.05;86.74
67192;HTU21D;54120;53.504;49.426;2024-02-21T02:19:07;-18.02;86.86
67192;HTU21D;54120;53.504;49.426;2024-02-21T02:21:39;-18.06;86.51
67192;HTU21D;54120;53.504;49.426;2024-02-21T02:24:08;-18.07;86.41
67192;HTU21D;54120;53.504;49.426;2024-02-21T02:26:36;-18.04;86.77
67192;HTU21D;54120;53.504;49.426;2024-02-21T02:29:02;-18.07;86.22
67192;HTU21D;54120;53.504;49.426;2024-02-21T02:31:29;-18.05;86.93
67192;HTU21D;54120;53.504;49.426;2024-02-21T02:33:55;-18.06;86.68
67192;HTU21D;54120;53.504;49.426;2024-02-21T02:36:21;-18.20;85.16
67192;HTU21D;54120;53.504;49.426;2024-02-21T02:38:47;-18.12;87.21
67192;HTU21D;54120;53.504;49.426;2024-02-21T02:41:14;-18.19;86.05
67192;HTU21D;54120;53.504;49.426;2024-02-21T02:43:40;-18.16;86.63
67192;HTU21D;54120;53.504;49.426;2024-02-21T02:46:06;-18.22;86.12
67192;HTU21D;54120;53.504;49.426;2024-02-21T02:48:33;-18.24;86.41
67192;HTU21D;54120;53.504;49.426;2024-02-21T02:50:59;-18.17;87.19
67192;HTU21D;54120;53.504;49.426;2024-02-21T02:53:25;-18.17;87.30
67192;HTU21D;54120;53.504;49.426;2024-02-21T02:55:52;-18.19;87.09
67192;HTU21D;54120;53.504;49.426;2024-02-21T02:58:18;-18.18;87.27
67192;HTU21D;54120;53.504;49.426;2024-02-21T03:00:44;-18.19;87.03
67192;HTU21D;54120;53.504;49.426;2024-02-21T03:03:11;-18.21;86.95
67192;HTU21D;54120;53.504;49.426;2024-02-21T03:05:37;-18.26;86.42
67192;HTU21D;54120;53.504;49.426;2024-02-21T03:08:04;-18.24;87.08
67192;HTU21D;54120;53.504;49.426;2024-02-21T03:10:33;-18.18;87.74
67192;HTU21D;54120;53.504;49.426;2024-02-21T03:12:59;-18.31;86.48
67192;HTU21D;54120;53.504;49.426;2024-02-21T03:15:26;-18.20;87.86
67192;HTU21D;54120;53.504;49.426;2024-02-21T03:17:52;-18.18;88.02
67192;HTU21D;54120;53.504;49.426;2024-02-21T03:20:18;-18.14;88.34
67192;HTU21D;54120;53.504;49.426;2024-02-21T03:22:45;-18.12;88.06
67192;HTU21D;54120;53.504;49.426;2024-02-21T03:25:12;-18.11;87.66
67192;HTU21D;54120;53.504;49.426;2024-02-21T03:27:40;-18.17;87.16
67192;HTU21D;54120;53.504;49.426;2024-02-21T03:30:06;-18.24;87.03
67192;HTU21D;54120;53.504;49.426;2024-02-21T03:32:33;-18.36;86.48
67192;HTU21D;54120;53.504;49.426;2024-02-21T03:34:59;-18.35;86.90
67192;HTU21D;54120;53.504;49.426;2024-02-21T03:37:25;-18.31;87.28
67192;HTU21D;54120;53.504;49.426;2024-02-21T03:39:52;-18.34;86.66
67192;HTU21D;54120;53.504;49.426;2024-02-21T03:42:18;-18.31;86.40
67192;HTU21D;54120;53.504;49.426;2024-02-21T03:44:44;-18.32;86.03
67192;HTU21D;54120;53.504;49.426;2024-02-21T03:47:11;-18.18;86.60
67192;HTU21D;54120;53.504;49.426;2024-02-21T03:49:37;-18.12;86.21
67192;HTU21D;54120;53.504;49.426;2024-02-21T03:52:04;-18.04;86.38
67192;HTU21D;54120;53.504;49.426;2024-02-21T03:54:30;-18.06;85.94
67192;HTU21D;54120;53.504;49.426;2024-02-21T03:56:57;-17.97;86.92
67192;HTU21D;54120;53.504;49.426;2024-02-21T03:59:23;-17.87;86.57
67192;HTU21D;54120;53.504;49.426;2024-02-21T04:01:53;-17.81;85.89
67192;HTU21D;54120;53.504;49.426;2024-02-21T04:04:20;-17.57;85.87
67192;HTU21D;54120;53.504;49.426;2024-02-21T04:06:50;-17.28;84.23
67192;HTU21D;54120;53.504;49.426;2024-02-21T04:09:17;-16.87;83.29
67192;HTU21D;54120;53.504;49.426;2024-02-21T04:11:44;-16.38;81.01
67192;HTU21D;54120;53.504;49.426;2024-02-21T04:14:11;-15.88;78.94
67192;HTU21D;54120;53.504;49.426;2024-02-21T04:16:40;-15.36;76.99
67192;HTU21D;54120;53.504;49.426;2024-02-21T04:19:06;-14.86;74.94
67192;HTU21D;54120;53.504;49.426;2024-02-21T04:21:32;-14.18;73.69
67192;HTU21D;54120;53.504;49.426;2024-02-21T04:23:59;-13.76;71.94
67192;HTU21D;54120;53.504;49.426;2024-02-21T04:26:26;-13.29;70.10
67192;HTU21D;54120;53.504;49.426;2024-02-21T04:28:53;-12.95;68.26
67192;HTU21D;54120;53.504;49.426;2024-02-21T04:31:19;-12.40;67.14
67192;HTU21D;54120;53.504;49.426;2024-02-21T04:33:45;-12.06;63.94
67192;HTU21D;54120;53.504;49.426;2024-02-21T04:36:12;-11.71;63.33
67192;HTU21D;54120;53.504;49.426;2024-02-21T04:38:38;-12.15;62.63
67192;HTU21D;54120;53.504;49.426;2024-02-21T04:41:05;-13.17;65.81
67192;HTU21D;54120;53.504;49.426;2024-02-21T04:43:31;-13.69;67.88
67192;HTU21D;54120;53.504;49.426;2024-02-21T04:45:57;-13.60;69.23
67192;HTU21D;54120;53.504;49.426;2024-02-21T04:48:24;-13.19;69.54
67192;HTU21D;54120;53.504;49.426;2024-02-21T04:50:50;-11.75;66.59
67192;HTU21D;54120;53.504;49.426;2024-02-21T04:53:16;-11.47;63.55
67192;HTU21D;54120;53.504;49.426;2024-02-21T04:55:43;-10.60;63.53
67192;HTU21D;54120;53.504;49.426;2024-02-21T04:58:10;-9.44;58.56
67192;HTU21D;54120;53.504;49.426;2024-02-21T05:00:36;-9.11;56.21
67192;HTU21D;54120;53.504;49.426;2024-02-21T05:03:02;-9.42;56.38
67192;HTU21D;54120;53.504;49.426;2024-02-21T05:05:29;-9.42;57.95
67192;HTU21D;54120;53.504;49.426;2024-02-21T05:07:55;-8.26;55.14
67192;HTU21D;54120;53.504;49.426;2024-02-21T05:10:21;-8.88;53.39
67192;HTU21D;54120;53.504;49.426;2024-02-21T05:12:48;-8.85;56.63
67192;HTU21D;54120;53.504;49.426;2024-02-21T05:15:14;-8.37;53.09
67192;HTU21D;54120;53.504;49.426;2024-02-21T05:17:40;-8.67;56.11
67192;HTU21D;54120;53.504;49.426;2024-02-21T05:20:07;-7.59;53.29
67192;HTU21D;54120;53.504;49.426;2024-02-21T05:22:33;-7.07;52.05
67192;HTU21D;54120;53.504;49.426;2024-02-21T05:25:00;-5.72;49.09
67192;HTU21D;54120;53.504;49.426;2024-02-21T05:27:26;-4.60;45.27
67192;HTU21D;54120;53.504;49.426;2024-02-21T05:29:53;-4.04;44.83
67192;HTU21D;54120;53.504;49.426;2024-02-21T05:32:20;-3.84;43.57
67192;HTU21D;54120;53.504;49.426;2024-02-21T05:34:49;-3.72;42.44
67192;HTU21D;54120;53.504;49.426;2024-02-21T05:37:16;-3.42;42.87
67192;HTU21D;54120;53.504;49.426;2024-02-21T05:39:42;-2.62;40.61
67192;HTU21D;54120;53.504;49.426;2024-02-21T05:42:08;-2.15;39.59
67192;HTU21D;54120;53.504;49.426;2024-02-21T05:44:34;-2.43;40.68
67192;HTU21D;54120;53.504;49.426;2024-02-21T05:47:03;-1.92;39.32
67192;HTU21D;54120;53.504;49.426;2024-02-21T05:49:30;-1.82;39.24
67192;HTU21D;54120;53.504;49.426;2024-02-21T05:51:56;-1.25;39.11
67192;HTU21D;54120;53.504;49.426;2024-02-21T05:54:22;-0.91;36.02
67192;HTU21D;54120;53.504;49.426;2024-02-21T05:56:49;-0.71;37.79
67192;HTU21D;54120;53.504;49.426;2024-02-21T05:59:16;-0.12;35.89
67192;HTU21D;54120;53.504;49.426;2024-02-21T06:01:42;0.18;35.92
67192;HTU21D;54120;53.504;49.426;2024-02-21T06:04:08;0.46;35.50
67192;HTU21D;54120;53.504;49.426;2024-02-21T06:06:34;-0.07;37.01
67192;HTU21D;54120;53.504;49.426;2024-02-21T06:09:01;-0.02;36.79
67192;HTU21D;54120;53.504;49.426;2024-02-21T06:11:28;-0.40;36.71
67192;HTU21D;54120;53.504;49.426;2024-02-21T06:13:55;-0.64;37.56
67192;HTU21D;54120;53.504;49.426;2024-02-21T06:16:21;-0.23;37.70
67192;HTU21D;54120;53.504;49.426;2024-02-21T06:18:47;-0.44;37.61
67192;HTU21D;54120;53.504;49.426;2024-02-21T06:21:14;-0.94;39.36
67192;HTU21D;54120;53.504;49.426;2024-02-21T06:23:42;-1.15;39.64
67192;HTU21D;54120;53.504;49.426;2024-02-21T06:26:08;-0.79;39.00
67192;HTU21D;54120;53.504;49.426;2024-02-21T06:28:35;-0.82;39.39
67192;HTU21D;54120;53.504;49.426;2024-02-21T06:31:02;-0.59;37.91
67192;HTU21D;54120;53.504;49.426;2024-02-21T06:33:28;-0.72;37.80
67192;HTU21D;54120;53.504;49.426;2024-02-21T06:35:54;-0.67;39.19
67192;HTU21D;54120;53.504;49.426;2024-02-21T06:38:21;0.09;37.91
67192;HTU21D;54120;53.504;49.426;2024-02-21T06:40:47;0.61;35.73
67192;HTU21D;54120;53.504;49.426;2024-02-21T06:43:20;0.84;35.98
67192;HTU21D;54120;53.504;49.426;2024-02-21T06:45:46;0.61;35.24
67192;HTU21D;54120;53.504;49.426;2024-02-21T06:48:17;0.99;35.79
67192;HTU21D;54120;53.504;49.426;2024-02-21T06:50:44;1.48;34.40
67192;HTU21D;54120;53.504;49.426;2024-02-21T06:53:10;1.27;34.79
67192;HTU21D;54120;53.504;49.426;2024-02-21T06:55:37;1.32;34.82
67192;HTU21D;54120;53.504;49.426;2024-02-21T06:58:03;1.16;35.23
67192;HTU21D;54120;53.504;49.426;2024-02-21T07:00:29;1.88;34.97
67192;HTU21D;54120;53.504;49.426;2024-02-21T07:02:56;2.66;32.57
67192;HTU21D;54120;53.504;49.426;2024-02-21T07:05:22;3.13;32.74
67192;HTU21D;54120;53.504;49.426;2024-02-21T07:07:48;2.87;32.40
67192;HTU21D;54120;53.504;49.426;2024-02-21T07:10:15;2.99;32.67
67192;HTU21D;54120;53.504;49.426;2024-02-21T07:12:41;2.79;32.75
67192;HTU21D;54120;53.504;49.426;2024-02-21T07:15:10;1.25;35.88
67192;HTU21D;54120;53.504;49.426;2024-02-21T07:17:36;1.53;34.95
67192;HTU21D;54120;53.504;49.426;2024-02-21T07:20:02;2.16;34.05
67192;HTU21D;54120;53.504;49.426;2024-02-21T07:22:29;1.90;34.50
67192;HTU21D;54120;53.504;49.426;2024-02-21T07:24:55;2.27;34.11
67192;HTU21D;54120;53.504;49.426;2024-02-21T07:27:21;2.59;34.60
67192;HTU21D;54120;53.504;49.426;2024-02-21T07:29:48;3.00;32.94
67192;HTU21D;54120;53.504;49.426;2024-02-21T07:32:15;3.00;32.67
67192;HTU21D;54120;53.504;49.426;2024-02-21T07:34:42;2.20;34.26
67192;HTU21D;54120;53.504;49.426;2024-02-21T07:37:09;1.68;35.60
67192;HTU21D;54120;53.504;49.426;2024-02-21T07:39:38;2.12;34.57
67192;HTU21D;54120;53.504;49.426;2024-02-21T07:42:04;1.94;35.06
67192;HTU21D;54120;53.504;49.426;2024-02-21T07:44:31;0.88;37.12
67192;HTU21D;54120;53.504;49.426;2024-02-21T07:46:58;-1.58;42.23
67192;HTU21D;54120;53.504;49.426;2024-02-21T07:49:25;-4.29;50.70
67192;HTU21D;54120;53.504;49.426;2024-02-21T07:51:51;-5.42;55.36
67192;HTU21D;54120;53.504;49.426;2024-02-21T07:54:18;-5.82;58.15
67192;HTU21D;54120;53.504;49.426;2024-02-21T07:56:45;-6.22;59.14
67192;HTU21D;54120;53.504;49.426;2024-02-21T07:59:11;-6.53;60.08
67192;HTU21D;54120;53.504;49.426;2024-02-21T08:01:40;-6.63;61.47
67192;HTU21D;54120;53.504;49.426;2024-02-21T08:04:06;-6.53;61.54
67192;HTU21D;54120;53.504;49.426;2024-02-21T08:06:32;-6.82;61.48
67192;HTU21D;54120;53.504;49.426;2024-02-21T08:08:59;-6.83;62.01
67192;HTU21D;54120;53.504;49.426;2024-02-21T08:11:26;-6.57;61.65
67192;HTU21D;54120;53.504;49.426;2024-02-21T08:13:53;-6.90;61.99
67192;HTU21D;54120;53.504;49.426;2024-02-21T08:16:19;-6.80;60.97
67192;HTU21D;54120;53.504;49.426;2024-02-21T08:18:45;-6.90;62.73
67192;HTU21D;54120;53.504;49.426;2024-02-21T08:21:12;-6.47;63.41
67192;HTU21D;54120;53.504;49.426;2024-02-21T08:23:38;-6.29;61.34
67192;HTU21D;54120;53.504;49.426;2024-02-21T08:26:04;-6.09;59.88
67192;HTU21D;54120;53.504;49.426;2024-02-21T08:28:32;-6.13;61.33
67192;HTU21D;54120;53.504;49.426;2024-02-21T08:30:58;-6.14;60.47
67192;HTU21D;54120;53.504;49.426;2024-02-21T08:33:24;-6.78;61.20
67192;HTU21D;54120;53.504;49.426;2024-02-21T08:35:54;-6.55;63.50
67192;HTU21D;54120;53.504;49.426;2024-02-21T08:38:20;-6.35;61.06
67192;HTU21D;54120;53.504;49.426;2024-02-21T08:40:46;-6.32;60.92
67192;HTU21D;54120;53.504;49.426;2024-02-21T08:43:13;-6.05;61.76
67192;HTU21D;54120;53.504;49.426;2024-02-21T08:45:39;-5.64;59.76
67192;HTU21D;54120;53.504;49.426;2024-02-21T08:48:06;-5.54;58.68
67192;HTU21D;54120;53.504;49.426;2024-02-21T08:50:34;-5.53;59.69
67192;HTU21D;54120;53.504;49.426;2024-02-21T08:53:00;-5.45;58.35
67192;HTU21D;54120;53.504;49.426;2024-02-21T08:55:27;-5.42;58.94
67192;HTU21D;54120;53.504;49.426;2024-02-21T08:57:53;-5.42;58.31
67192;HTU21D;54120;53.504;49.426;2024-02-21T09:00:20;-5.68;58.47
67192;HTU21D;54120;53.504;49.426;2024-02-21T09:02:50;-5.72;59.23
67192;HTU21D;54120;53.504;49.426;2024-02-21T09:05:16;-5.53;58.13
67192;HTU21D;54120;53.504;49.426;2024-02-21T09:07:42;-5.34;56.19
67192;HTU21D;54120;53.504;49.426;2024-02-21T09:10:09;-5.60;56.03
67192;HTU21D;54120;53.504;49.426;2024-02-21T09:12:35;-5.75;56.38
67192;HTU21D;54120;53.504;49.426;2024-02-21T09:15:02;-5.89;56.43
67192;HTU21D;54120;53.504;49.426;2024-02-21T09:17:28;-5.98;57.58
67192;HTU21D;54120;53.504;49.426;2024-02-21T09:19:55;-5.81;56.05
67192;HTU21D;54120;53.504;49.426;2024-02-21T09:22:25;-5.83;56.61
67192;HTU21D;54120;53.504;49.426;2024-02-21T09:24:51;-5.92;56.22
67192;HTU21D;54120;53.504;49.426;2024-02-21T09:27:17;-5.98;56.62
67192;HTU21D;54120;53.504;49.426;2024-02-21T09:29:44;-6.06;56.98
67192;HTU21D;54120;53.504;49.426;2024-02-21T09:32:11;-6.26;56.98
67192;HTU21D;54120;53.504;49.426;2024-02-21T09:34:40;-6.32;58.02
67192;HTU21D;54120;53.504;49.426;2024-02-21T09:37:06;-6.18;56.89
67192;HTU21D;54120;53.504;49.426;2024-02-21T09:39:33;-6.27;57.16
67192;HTU21D;54120;53.504;49.426;2024-02-21T09:42:06;-6.18;57.14
67192;HTU21D;54120;53.504;49.426;2024-02-21T09:44:38;-6.13;57.02
67192;HTU21D;54120;53.504;49.426;2024-02-21T09:49:42;-6.35;57.47
67192;HTU21D;54120;53.504;49.426;2024-02-21T09:52:10;-6.55;58.09
67192;HTU21D;54120;53.504;49.426;2024-02-21T09:54:42;-6.61;58.11
67192;HTU21D;54120;53.504;49.426;2024-02-21T09:57:10;-6.60;58.51
67192;HTU21D;54120;53.504;49.426;2024-02-21T09:59:39;-6.50;58.54
67192;HTU21D;54120;53.504;49.426;2024-02-21T10:02:07;-6.51;58.38
67192;HTU21D;54120;53.504;49.426;2024-02-21T10:04:34;-6.62;58.73
67192;HTU21D;54120;53.504;49.426;2024-02-21T10:07:00;-6.63;59.15
67192;HTU21D;54120;53.504;49.426;2024-02-21T10:09:28;-7.04;60.08
67192;HTU21D;54120;53.504;49.426;2024-02-21T10:11:55;-7.02;59.86
67192;HTU21D;54120;53.504;49.426;2024-02-21T10:14:22;-7.21;60.23
67192;HTU21D;54120;53.504;49.426;2024-02-21T10:16:56;-7.46;60.55
67192;HTU21D;54120;53.504;49.426;2024-02-21T10:19:23;-7.55;61.12
67192;HTU21D;54120;53.504;49.426;2024-02-21T10:22:09;-7.78;62.13
67192;HTU21D;54120;53.504;49.426;2024-02-21T10:24:37;-7.55;62.11
67192;HTU21D;54120;53.504;49.426;2024-02-21T10:27:12;-7.52;61.54
67192;HTU21D;54120;53.504;49.426;2024-02-21T10:29:39;-7.51;61.57
67192;HTU21D;54120;53.504;49.426;2024-02-21T10:32:10;-7.59;61.69
67192;HTU21D;54120;53.504;49.426;2024-02-21T10:34:38;-7.61;61.81
67192;HTU21D;54120;53.504;49.426;2024-02-21T10:37:10;-7.94;63.22
67192;HTU21D;54120;53.504;49.426;2024-02-21T10:39:38;-7.93;63.34
67192;HTU21D;54120;53.504;49.426;2024-02-21T10:42:07;-7.97;62.80
67192;HTU21D;54120;53.504;49.426;2024-02-21T10:44:39;-8.06;63.46
67192;HTU21D;54120;53.504;49.426;2024-02-21T10:47:11;-8.09;63.31
67192;HTU21D;54120;53.504;49.426;2024-02-21T10:49:41;-8.06;63.17
67192;HTU21D;54120;53.504;49.426;2024-02-21T10:52:17;-7.82;62.82
67192;HTU21D;54120;53.504;49.426;2024-02-21T10:54:59;-7.75;62.41
67192;HTU21D;54120;53.504;49.426;2024-02-21T10:57:34;-7.72;62.30
67192;HTU21D;54120;53.504;49.426;2024-02-21T11:00:01;-7.71;62.55
67192;HTU21D;54120;53.504;49.426;2024-02-21T11:02:29;-7.91;62.62
67192;HTU21D;54120;53.504;49.426;2024-02-21T11:04:57;-8.26;63.57
67192;HTU21D;54120;53.504;49.426;2024-02-21T11:07:25;-8.46;64.43
67192;HTU21D;54120;53.504;49.426;2024-02-21T11:09:52;-8.41;64.79
67192;HTU21D;54120;53.504;49.426;2024-02-21T11:12:23;-8.48;64.65
67192;HTU21D;54120;53.504;49.426;2024-02-21T11:14:49;-8.53;64.64
67192;HTU21D;54120;53.504;49.426;2024-02-21T11:17:19;-8.66;65.86
67192;HTU21D;54120;53.504;49.426;2024-02-21T11:19:53;-8.66;65.98
67192;HTU21D;54120;53.504;49.426;2024-02-21T11:22:20;-8.86;66.40
67192;HTU21D;54120;53.504;49.426;2024-02-21T11:24:48;-8.69;65.44
67192;HTU21D;54120;53.504;49.426;2024-02-21T11:27:22;-8.65;65.94
67192;HTU21D;54120;53.504;49.426;2024-02-21T11:29:56;-8.57;65.78
67192;HTU21D;54120;53.504;49.426;2024-02-21T11:32:26;-8.67;65.46
67192;HTU21D;54120;53.504;49.426;2024-02-21T11:35:00;-8.67;65.72
67192;HTU21D;54120;53.504;49.426;2024-02-21T11:37:32;-8.59;66.48
67192;HTU21D;54120;53.504;49.426;2024-02-21T11:40:00;-8.59;65.91
67192;HTU21D;54120;53.504;49.426;2024-02-21T11:42:27;-8.43;65.27
67192;HTU21D;54120;53.504;49.426;2024-02-21T11:44:55;-8.51;65.12
67192;HTU21D;54120;53.504;49.426;2024-02-21T11:47:23;-8.53;65.04
67192;HTU21D;54120;53.504;49.426;2024-02-21T11:49:50;-8.42;64.50
67192;HTU21D;54120;53.504;49.426;2024-02-21T11:52:24;-8.28;63.72
67192;HTU21D;54120;53.504;49.426;2024-02-21T11:54:54;-8.37;63.82
67192;HTU21D;54120;53.504;49.426;2024-02-21T11:57:23;-8.57;63.85
67192;HTU21D;54120;53.504;49.426;2024-02-21T11:59:51;-8.89;64.83
67192;HTU21D;54120;53.504;49.426;2024-02-21T12:02:20;-9.12;65.39
67192;HTU21D;54120;53.504;49.426;2024-02-21T12:04:47;-9.14;66.50
67192;HTU21D;54120;53.504;49.426;2024-02-21T12:07:15;-9.16;66.67
67192;HTU21D;54120;53.504;49.426;2024-02-21T12:09:41;-9.05;65.98
67192;HTU21D;54120;53.504;49.426;2024-02-21T12:12:08;-9.10;66.89
67192;HTU21D;54120;53.504;49.426;2024-02-21T12:14:35;-9.03;66.33
67192;HTU21D;54120;53.504;49.426;2024-02-21T12:17:04;-9.02;66.69
67192;HTU21D;54120;53.504;49.426;2024-02-21T12:19:31;-8.86;66.06
67192;HTU21D;54120;53.504;49.426;2024-02-21T12:22:01;-8.81;65.69
67192;HTU21D;54120;53.504;49.426;2024-02-21T12:24:31;-8.70;65.14
67192;HTU21D;54120;53.504;49.426;2024-02-21T12:26:58;-8.73;66.07
67192;HTU21D;54120;53.504;49.426;2024-02-21T12:29:24;-8.79;65.36
67192;HTU21D;54120;53.504;49.426;2024-02-21T12:31:51;-8.93;65.31
67192;HTU21D;54120;53.504;49.426;2024-02-21T12:34:17;-8.93;66.40
67192;HTU21D;54120;53.504;49.426;2024-02-21T12:36:45;-8.87;65.68
67192;HTU21D;54120;53.504;49.426;2024-02-21T12:39:14;-8.87;66.16
67192;HTU21D;54120;53.504;49.426;2024-02-21T12:41:42;-8.85;66.07
67192;HTU21D;54120;53.504;49.426;2024-02-21T12:44:10;-8.75;66.02
67192;HTU21D;54120;53.504;49.426;2024-02-21T12:46:37;-8.71;65.25
67192;HTU21D;54120;53.504;49.426;2024-02-21T12:49:05;-8.83;65.11
67192;HTU21D;54120;53.504;49.426;2024-02-21T12:51:34;-8.92;65.88
67192;HTU21D;54120;53.504;49.426;2024-02-21T12:54:01;-8.98;66.49
67192;HTU21D;54120;53.504;49.426;2024-02-21T12:56:29;-9.05;66.82
67192;HTU21D;54120;53.504;49.426;2024-02-21T12:58:57;-9.27;67.23
67192;HTU21D;54120;53.504;49.426;2024-02-21T13:01:24;-9.51;68.96
67192;HTU21D;54120;53.504;49.426;2024-02-21T13:03:50;-9.60;69.27
67192;HTU21D;54120;53.504;49.426;2024-02-21T13:06:16;-9.69;69.49
67192;HTU21D;54120;53.504;49.426;2024-02-21T13:08:42;-9.75;70.15
67192;HTU21D;54120;53.504;49.426;2024-02-21T13:11:10;-9.78;70.32
67192;HTU21D;54120;53.504;49.426;2024-02-21T13:13:37;-9.86;71.26
67192;HTU21D;54120;53.504;49.426;2024-02-21T13:16:04;-9.94;70.72
67192;HTU21D;54120;53.504;49.426;2024-02-21T13:18:30;-9.98;71.16
67192;HTU21D;54120;53.504;49.426;2024-02-21T13:20:58;-10.17;71.63
67192;HTU21D;54120;53.504;49.426;2024-02-21T13:23:24;-10.42;72.72
67192;HTU21D;54120;53.504;49.426;2024-02-21T13:25:51;-10.40;73.35
67192;HTU21D;54120;53.504;49.426;2024-02-21T13:28:17;-10.38;72.38
67192;HTU21D;54120;53.504;49.426;2024-02-21T13:30:43;-10.58;72.77
67192;HTU21D;54120;53.504;49.426;2024-02-21T13:33:10;-10.86;73.93
67192;HTU21D;54120;53.504;49.426;2024-02-21T13:35:36;-10.97;74.75
67192;HTU21D;54120;53.504;49.426;2024-02-21T13:38:03;-11.06;74.68
67192;HTU21D;54120;53.504;49.426;2024-02-21T13:40:29;-11.04;75.53
67192;HTU21D;54120;53.504;49.426;2024-02-21T13:42:56;-11.11;74.70
67192;HTU21D;54120;53.504;49.426;2024-02-21T13:45:22;-11.17;75.59
67192;HTU21D;54120;53.504;49.426;2024-02-21T13:47:49;-11.35;75.28
67192;HTU21D;54120;53.504;49.426;2024-02-21T13:50:15;-11.55;76.11
67192;HTU21D;54120;53.504;49.426;2024-02-21T13:52:41;-11.73;76.82
67192;HTU21D;54120;53.504;49.426;2024-02-21T13:55:08;-11.84;77.23
67192;HTU21D;54120;53.504;49.426;2024-02-21T13:57:37;-11.96;77.69
67192;HTU21D;54120;53.504;49.426;2024-02-21T14:00:04;-11.91;78.14
67192;HTU21D;54120;53.504;49.426;2024-02-21T14:02:31;-12.00;78.43
67192;HTU21D;54120;53.504;49.426;2024-02-21T14:04:57;-12.15;78.07
67192;HTU21D;54120;53.504;49.426;2024-02-21T14:07:24;-12.14;78.84
67192;HTU21D;54120;53.504;49.426;2024-02-21T14:09:50;-12.24;78.34
67192;HTU21D;54120;53.504;49.426;2024-02-21T14:12:18;-12.30;78.62
67192;HTU21D;54120;53.504;49.426;2024-02-21T14:14:46;-12.40;78.59
67192;HTU21D;54120;53.504;49.426;2024-02-21T14:17:12;-12.55;79.42
67192;HTU21D;54120;53.504;49.426;2024-02-21T14:19:39;-12.69;79.60
67192;HTU21D;54120;53.504;49.426;2024-02-21T14:22:05;-12.79;80.30
67192;HTU21D;54120;53.504;49.426;2024-02-21T14:24:32;-12.73;80.31
67192;HTU21D;54120;53.504;49.426;2024-02-21T14:26:58;-12.69;79.77
67192;HTU21D;54120;53.504;49.426;2024-02-21T14:29:25;-12.73;79.59
67192;HTU21D;54120;53.504;49.426;2024-02-21T14:31:52;-12.79;79.73
67192;HTU21D;54120;53.504;49.426;2024-02-21T14:34:18;-12.86;80.13
67192;HTU21D;54120;53.504;49.426;2024-02-21T14:36:44;-12.99;80.41
67192;HTU21D;54120;53.504;49.426;2024-02-21T14:39:11;-13.02;81.26
67192;HTU21D;54120;53.504;49.426;2024-02-21T14:41:37;-13.03;81.27
67192;HTU21D;54120;53.504;49.426;2024-02-21T14:44:05;-12.99;80.49
67192;HTU21D;54120;53.504;49.426;2024-02-21T14:46:33;-13.08;80.44
67192;HTU21D;54120;53.504;49.426;2024-02-21T14:49:00;-13.13;80.92
67192;HTU21D;54120;53.504;49.426;2024-02-21T14:51:26;-13.17;81.14
67192;HTU21D;54120;53.504;49.426;2024-02-21T14:53:53;-13.12;80.84
67192;HTU21D;54120;53.504;49.426;2024-02-21T14:56:21;-13.14;80.75
67192;HTU21D;54120;53.504;49.426;2024-02-21T14:58:49;-13.14;81.32
67192;HTU21D;54120;53.504;49.426;2024-02-21T15:01:15;-13.09;81.17